EGKA - Shoreham Airport
Distance from station: E 5mi, 14km
Updated: 12/18/2017 11:20am
NOT Current
Clear
Clear
 Wind from N
Wind: N 5 mph , 7 km/h
Temperature: 37°F , 3°C
Wind Chill: 33°F , 1°C
Dew Point: 36°F , 2°C
Humidity: 93%
Barometer: 30.5 inHg , 1033 hPa
Summary: Clear
Visibility: greater than 7 miles , 10 km
2017/12/18 19:20 EGKA 181920Z 35004KT CAVOK 03/02 Q1033